Rachel, Nevada
Current Conditions -  °F | °C
As of 4:58 AM on Tuesday 21 Oct 2014 (Local Time) from KINS Reporting Station
Clear Clear  
Wind Chill: 57°   Ceiling: Unl
Heat Index: 57°   Visibility: 10mi
Dew Point: 35°   Wind: 2mph
Humidity: 43%   Direction: 280°W
Pressure: 29.88"   Gusts: NA
Location:  37.3772°N, 115.475°W
Report Text: KINS 211158Z AUTO 28002KT 10SM CLR 14/02 A2988 RMK AO2 SLPNO T01400015 10219 20139 55001
Loading
Personal Weather Stations






























Interactive Weather Map
Tropical Storm Tracking
New forecast layout! Learn more

10-Day Weather Forecast

Advertisements
Track Severe Weather on mobile